createdAt,value
2018-09-09T18:05:18.967Z,100346.00
2018-09-09T18:07:49.187Z,100335.00
2018-09-09T18:10:20.203Z,100325.00
2018-09-09T18:12:51.189Z,100337.00
2018-09-09T18:15:21.717Z,100333.00
2018-09-09T18:17:51.830Z,100331.00
2018-09-09T18:20:22.306Z,100332.00
2018-09-09T18:22:53.246Z,100331.00
2018-09-09T18:25:24.158Z,100335.00
2018-09-09T18:27:55.019Z,100343.00
2018-09-09T18:30:25.810Z,100350.00
2018-09-09T18:32:56.028Z,100350.00
2018-09-09T18:35:26.797Z,100360.00
2018-09-09T18:37:57.664Z,100356.00
2018-09-09T18:40:27.986Z,100363.00
2018-09-09T18:42:58.926Z,100361.00
2018-09-09T18:45:30.304Z,100366.00
2018-09-09T18:48:00.375Z,100368.00
2018-09-09T18:50:30.612Z,100366.00
2018-09-09T18:53:00.788Z,100364.00
2018-09-09T18:55:31.423Z,100366.00
2018-09-09T18:58:02.826Z,100376.00
2018-09-09T19:00:33.590Z,100364.00
2018-09-09T19:03:04.124Z,100374.00
2018-09-09T19:05:34.557Z,100374.00
2018-09-09T19:08:04.975Z,100397.00
2018-09-09T19:10:35.506Z,100408.00
2018-09-09T19:13:06.253Z,100411.00
2018-09-09T19:15:36.395Z,100411.00
2018-09-09T19:18:06.799Z,100414.00
2018-09-09T19:20:37.762Z,100419.00
2018-09-09T19:23:08.082Z,100429.00
2018-09-09T19:25:40.103Z,100427.00
2018-09-09T19:28:11.222Z,100451.00
2018-09-09T19:30:41.185Z,100448.00
2018-09-09T19:33:11.500Z,100445.00
2018-09-09T19:35:41.688Z,100455.00
2018-09-09T19:38:11.984Z,100453.00
2018-09-09T19:40:43.028Z,100456.00
2018-09-09T19:43:13.269Z,100457.00
2018-09-09T19:45:43.570Z,100453.00
2018-09-09T19:48:13.647Z,100460.00
2018-09-09T19:50:46.969Z,100471.00
2018-09-09T19:53:18.129Z,100464.00
2018-09-09T19:55:48.289Z,100463.00
2018-09-09T19:58:18.227Z,100478.00
2018-09-09T20:00:49.542Z,100473.00
2018-09-09T20:03:19.553Z,100473.00
2018-09-09T20:05:49.759Z,100477.00
2018-09-09T20:08:19.752Z,100480.00
2018-09-09T20:10:50.204Z,100479.00
2018-09-09T20:13:20.123Z,100479.00
2018-09-09T20:15:50.191Z,100470.00
2018-09-09T20:18:20.798Z,100478.00
2018-09-09T20:20:50.989Z,100486.00
2018-09-09T20:23:27.892Z,100485.00
2018-09-09T20:25:58.209Z,100489.00
2018-09-09T20:28:28.504Z,100493.00
2018-09-09T20:30:58.736Z,100495.00
2018-09-09T20:33:29.305Z,100492.00
2018-09-09T20:35:59.541Z,100500.00
2018-09-09T20:38:29.805Z,100505.00
2018-09-09T20:41:00.061Z,100496.00
2018-09-09T20:43:30.320Z,100491.00
2018-09-09T20:46:00.408Z,100498.00
2018-09-09T20:48:30.791Z,100521.00
2018-09-09T20:51:01.021Z,100521.00
2018-09-09T20:53:31.272Z,100526.00
2018-09-09T20:56:02.830Z,100521.00
2018-09-09T20:58:32.852Z,100522.00
2018-09-09T21:01:02.992Z,100529.00
2018-09-09T21:03:33.506Z,100520.00
2018-09-09T21:06:03.843Z,100518.00
2018-09-09T21:08:34.144Z,100527.00
2018-09-09T21:11:04.225Z,100525.00
2018-09-09T21:13:35.364Z,100535.00
2018-09-09T21:16:05.629Z,100538.00
2018-09-09T21:18:35.791Z,100545.00
2018-09-09T21:21:06.687Z,100554.00
2018-09-09T21:23:36.816Z,100562.00
2018-09-09T21:26:07.564Z,100573.00
2018-09-09T21:28:37.919Z,100568.00
2018-09-09T21:31:08.088Z,100566.00
2018-09-09T21:33:38.375Z,100554.00
2018-09-09T21:36:08.898Z,100549.00
2018-09-09T21:38:39.694Z,100548.00
2018-09-09T21:41:10.042Z,100543.00
2018-09-09T21:43:40.197Z,100559.00
2018-09-09T21:46:10.566Z,100557.00
2018-09-09T21:48:40.642Z,100560.00
2018-09-09T21:51:10.810Z,100565.00
2018-09-09T21:53:45.666Z,100554.00
2018-09-09T21:56:15.903Z,100551.00
2018-09-09T21:58:47.189Z,100560.00
2018-09-09T22:01:22.747Z,100560.00
2018-09-09T22:03:57.803Z,100558.00
2018-09-09T22:06:28.405Z,100569.00
2018-09-09T22:08:58.920Z,100569.00
2018-09-09T22:11:30.494Z,100576.00
2018-09-09T22:14:00.711Z,100572.00
2018-09-09T22:16:31.216Z,100563.00
2018-09-09T22:19:01.378Z,100570.00
2018-09-09T22:21:31.480Z,100572.00
2018-09-09T22:24:01.654Z,100566.00
2018-09-09T22:26:31.828Z,100560.00
2018-09-09T22:29:02.085Z,100558.00
2018-09-09T22:31:33.413Z,100566.00
2018-09-09T22:34:03.758Z,100561.00
2018-09-09T22:36:34.254Z,100560.00
2018-09-09T22:39:06.138Z,100546.00
2018-09-09T22:41:38.317Z,100558.00
2018-09-09T22:44:11.756Z,100558.00
2018-09-09T22:46:43.222Z,100554.00
2018-09-09T22:49:13.392Z,100552.00
2018-09-09T22:51:43.641Z,100561.00
2018-09-09T22:54:13.871Z,100548.00
2018-09-09T22:56:44.059Z,100560.00
2018-09-09T22:59:15.360Z,100564.00
2018-09-09T23:01:45.657Z,100558.00
2018-09-09T23:04:16.764Z,100553.00
2018-09-09T23:06:47.093Z,100569.00
2018-09-09T23:09:17.201Z,100560.00
2018-09-09T23:11:47.195Z,100569.00
2018-09-09T23:14:18.112Z,100568.00
2018-09-09T23:16:48.732Z,100568.00
2018-09-09T23:19:20.343Z,100566.00
2018-09-09T23:21:50.785Z,100575.00
2018-09-09T23:24:21.294Z,100580.00
2018-09-09T23:26:51.341Z,100566.00
2018-09-09T23:29:28.151Z,100559.00
2018-09-09T23:31:58.199Z,100557.00
2018-09-09T23:34:28.468Z,100550.00
2018-09-09T23:36:58.627Z,100553.00
2018-09-09T23:39:29.053Z,100557.00
2018-09-09T23:41:58.971Z,100571.00
2018-09-09T23:44:32.192Z,100588.00
2018-09-09T23:47:02.285Z,100591.00
2018-09-09T23:49:32.499Z,100590.00
2018-09-09T23:52:03.141Z,100597.00
2018-09-09T23:54:34.426Z,100602.00
2018-09-09T23:57:04.653Z,100602.00
2018-09-09T23:59:35.116Z,100609.00
